Pagrindinis puslapis
METAR-TAF:

METAR-TAF

Oro uostai :

Cape Girardeau, Misūris, Jungtinės Amerikos Valstijos

platuma: 37-13-32N, ilguma: 089-34-42W, Aukštis: 104 m

Dabartinis oras

Ataskaita buvo paskelbta 1 valandą ir 4 minutes, ne 11:53 UTC
Vėjas 7 kt iš Šiaurės/Šiaurės Rytų
Temperatūra -1°C
Drėgmė 80%
Slėgis 1033 hPa
Matomumas: 16.1 km
Giedras dangus

METAR: KCGI 191153Z AUTO 03007KT 10SM CLR M01/M04 A3049 RMK AO2 SLP327 T10111044 10017 21011 53019

Laikas: 06:57 (12:57 UTC)

Prognozė

Ataskaita buvo paskelbta 1 valandą ir 4 minutes, ne 11:53 UTC
Prognozė galioja nuo 19 metu 12 UTC su 20 metu 12 UTC
Vėjas 7 kt iš Šiaurės/Šiaurės Rytų
Matomumas: 10 km
Mažai debesys ne aukštis 25000 ft
Nuo 19 metu 1600 UTC
Vėjas 10 kt iš Šiaurės Rytų
Matomumas: 10 km
Su prošvaistėmis ne aukštis 25000 ft
Nuo 20 metu 0400 UTC
Vėjas 9 kt iš Šiaurės/Šiaurės Rytų
Matomumas: 10 km
Apsiniaukę ne aukštis 12000 ft

TAF: KCGI 191153Z 1912/2012 02007KT P6SM FEW250 FM191600 04010KT P6SM BKN250 FM200400 03009KT P6SM OVC120

Orai ataskaitas ir orų prognozės (METAR, TAF).

turimą stotys yra geltonos ir raudonos taškus žemėlapyje.

Perkelti pele per norėdami pamatyti stoties vardą.

Tada spustelėkite, norėdami matyti oro stebėjimo ir prognozės.

Norėdami pakeisti žemėlapį: spustelėkite ant žalios mygtukų su juodo kryžiaus žemyn,; žalią mygtuką su brūkšneliu, jei norite nutolinti; arba žalių rodyklių gretimoms žemėlapius.


METAR-TAF: